Waynesville-St. Robert Regional Forney field Fort Leonard Wood US
ICAO: KTBN
IATA: TBN
Category: Medium
Scheduled Services: Yes

Elevation: 1159 ft
TransAlt. 18000 ft.

Airport Communications:
ATIS:118.7
KANSAS CITY CNTR:133.8
CTAF:125.4
FORNEY TWR:125.4

KTBN Zoom In..

If you have problems with the map follow the link
https://www.worldairports.se/pages/airport.php?
ICAO=KTBN

Runways:

(A) RW 14 length 6038 ft width 150 ft
ILS 110.90 / hdg 144

(B) RW 32 length 6038 ft width 150 ft
---- / hdg 324

Location; KTBN
Day. 29 / Time. 16.56 Zulu
* Altimeter: 30.11
* Temperature: -01° c. -30.2°f.
* Wind from: KTB° Speed N kn.
Dewpoint: -02° c.
Visibility: 4 Statute Miles.
Clouds: Overcast 700 ft.
Conditions: Light Snow.Conditions: Mist.

KTBN 291656Z AUTO 04003KT 4SM -SN BR OVC007 M01/M02 A3011 RMK AO2 SNE13UPB13E32SNB32 CIG 006 RWY33 SLP210 P0000 T10071016


Wind From KTB°
Speed N kn.

 
 
jpsmedia worldairports.se 2020   terms of use